sensor_id;sensor_type;location;lat;lon;timestamp;temperature;humidity
69328;DHT22;56472;52.114;5.492;2022-12-31T00:00:13;14.80;86.10
69328;DHT22;56472;52.114;5.492;2022-12-31T00:02:40;14.90;86.20
69328;DHT22;56472;52.114;5.492;2022-12-31T00:05:08;14.90;86.20
69328;DHT22;56472;52.114;5.492;2022-12-31T00:07:35;14.90;86.10
69328;DHT22;56472;52.114;5.492;2022-12-31T00:10:02;14.90;86.00
69328;DHT22;56472;52.114;5.492;2022-12-31T00:12:29;14.90;86.00
69328;DHT22;56472;52.114;5.492;2022-12-31T00:14:56;15.00;85.90
69328;DHT22;56472;52.114;5.492;2022-12-31T00:17:23;15.00;85.80
69328;DHT22;56472;52.114;5.492;2022-12-31T00:19:49;15.00;85.80
69328;DHT22;56472;52.114;5.492;2022-12-31T00:22:16;15.00;85.90
69328;DHT22;56472;52.114;5.492;2022-12-31T00:24:43;15.00;85.90
69328;DHT22;56472;52.114;5.492;2022-12-31T00:27:10;15.00;86.00
69328;DHT22;56472;52.114;5.492;2022-12-31T00:29:37;15.00;86.00
69328;DHT22;56472;52.114;5.492;2022-12-31T00:32:04;15.00;86.00
69328;DHT22;56472;52.114;5.492;2022-12-31T00:34:32;15.00;86.10
69328;DHT22;56472;52.114;5.492;2022-12-31T00:36:59;15.00;86.10
69328;DHT22;56472;52.114;5.492;2022-12-31T00:39:26;15.00;86.20
69328;DHT22;56472;52.114;5.492;2022-12-31T00:41:53;15.00;86.10
69328;DHT22;56472;52.114;5.492;2022-12-31T00:44:20;15.00;86.00
69328;DHT22;56472;52.114;5.492;2022-12-31T00:46:47;15.00;86.10
69328;DHT22;56472;52.114;5.492;2022-12-31T00:49:14;14.90;86.00
69328;DHT22;56472;52.114;5.492;2022-12-31T00:51:41;14.90;86.10
69328;DHT22;56472;52.114;5.492;2022-12-31T00:54:08;14.90;86.30
69328;DHT22;56472;52.114;5.492;2022-12-31T00:56:35;14.90;86.30
69328;DHT22;56472;52.114;5.492;2022-12-31T00:59:03;14.80;86.40
69328;DHT22;56472;52.114;5.492;2022-12-31T01:01:33;14.80;86.50
69328;DHT22;56472;52.114;5.492;2022-12-31T01:04:09;14.80;86.60
69328;DHT22;56472;52.114;5.492;2022-12-31T01:06:36;14.70;86.60
69328;DHT22;56472;52.114;5.492;2022-12-31T01:09:04;14.70;86.70
69328;DHT22;56472;52.114;5.492;2022-12-31T01:11:31;14.70;87.60
69328;DHT22;56472;52.114;5.492;2022-12-31T01:13:59;14.70;86.70
69328;DHT22;56472;52.114;5.492;2022-12-31T01:16:40;14.70;86.80
69328;DHT22;56472;52.114;5.492;2022-12-31T01:19:11;14.70;86.70
69328;DHT22;56472;52.114;5.492;2022-12-31T01:21:39;14.70;86.60
69328;DHT22;56472;52.114;5.492;2022-12-31T01:24:08;14.70;86.60
69328;DHT22;56472;52.114;5.492;2022-12-31T01:26:35;14.70;86.30
69328;DHT22;56472;52.114;5.492;2022-12-31T01:29:04;14.70;86.30
69328;DHT22;56472;52.114;5.492;2022-12-31T01:31:33;14.70;86.30
69328;DHT22;56472;52.114;5.492;2022-12-31T01:34:00;14.70;86.20
69328;DHT22;56472;52.114;5.492;2022-12-31T01:36:29;14.70;86.20
69328;DHT22;56472;52.114;5.492;2022-12-31T01:38:57;14.70;86.10
69328;DHT22;56472;52.114;5.492;2022-12-31T01:41:35;14.70;86.00
69328;DHT22;56472;52.114;5.492;2022-12-31T01:46:55;14.70;86.00
69328;DHT22;56472;52.114;5.492;2022-12-31T01:52:12;14.70;85.70
69328;DHT22;56472;52.114;5.492;2022-12-31T01:54:46;14.70;85.60
69328;DHT22;56472;52.114;5.492;2022-12-31T01:57:15;14.70;85.60
69328;DHT22;56472;52.114;5.492;2022-12-31T01:59:43;14.70;85.60
69328;DHT22;56472;52.114;5.492;2022-12-31T02:02:12;14.70;85.60
69328;DHT22;56472;52.114;5.492;2022-12-31T02:04:40;14.70;85.60
69328;DHT22;56472;52.114;5.492;2022-12-31T02:07:09;14.70;85.60
69328;DHT22;56472;52.114;5.492;2022-12-31T02:09:38;14.70;85.50
69328;DHT22;56472;52.114;5.492;2022-12-31T02:12:06;14.70;85.60
69328;DHT22;56472;52.114;5.492;2022-12-31T02:14:39;14.70;86.30
69328;DHT22;56472;52.114;5.492;2022-12-31T02:23:04;14.70;85.40
69328;DHT22;56472;52.114;5.492;2022-12-31T02:31:31;14.70;85.10
69328;DHT22;56472;52.114;5.492;2022-12-31T02:34:10;14.80;85.00
69328;DHT22;56472;52.114;5.492;2022-12-31T02:36:42;14.80;84.90
69328;DHT22;56472;52.114;5.492;2022-12-31T02:39:11;14.80;84.90
69328;DHT22;56472;52.114;5.492;2022-12-31T02:41:39;14.80;84.70
69328;DHT22;56472;52.114;5.492;2022-12-31T02:44:31;14.80;84.60
69328;DHT22;56472;52.114;5.492;2022-12-31T03:00:24;14.70;84.40
69328;DHT22;56472;52.114;5.492;2022-12-31T03:03:11;14.70;84.50
69328;DHT22;56472;52.114;5.492;2022-12-31T03:05:41;14.70;84.40
69328;DHT22;56472;52.114;5.492;2022-12-31T03:08:09;14.70;84.40
69328;DHT22;56472;52.114;5.492;2022-12-31T03:10:36;14.70;84.30
69328;DHT22;56472;52.114;5.492;2022-12-31T03:13:03;14.70;84.30
69328;DHT22;56472;52.114;5.492;2022-12-31T03:15:31;14.70;84.30
69328;DHT22;56472;52.114;5.492;2022-12-31T03:23:29;14.60;84.10
69328;DHT22;56472;52.114;5.492;2022-12-31T03:25:57;14.60;84.20
69328;DHT22;56472;52.114;5.492;2022-12-31T03:28:27;14.50;84.20
69328;DHT22;56472;52.114;5.492;2022-12-31T03:30:56;14.50;84.40
69328;DHT22;56472;52.114;5.492;2022-12-31T03:33:24;14.50;84.40
69328;DHT22;56472;52.114;5.492;2022-12-31T03:35:52;14.50;84.20
69328;DHT22;56472;52.114;5.492;2022-12-31T03:38:19;14.50;84.30
69328;DHT22;56472;52.114;5.492;2022-12-31T03:40:49;14.50;84.20
69328;DHT22;56472;52.114;5.492;2022-12-31T03:43:17;14.50;84.10
69328;DHT22;56472;52.114;5.492;2022-12-31T03:45:52;14.50;84.20
69328;DHT22;56472;52.114;5.492;2022-12-31T03:48:20;14.40;84.10
69328;DHT22;56472;52.114;5.492;2022-12-31T03:50:48;14.40;84.10
69328;DHT22;56472;52.114;5.492;2022-12-31T03:53:15;14.40;84.10
69328;DHT22;56472;52.114;5.492;2022-12-31T03:55:42;14.40;84.20
69328;DHT22;56472;52.114;5.492;2022-12-31T03:58:09;14.40;84.20
69328;DHT22;56472;52.114;5.492;2022-12-31T04:00:36;14.40;84.20
69328;DHT22;56472;52.114;5.492;2022-12-31T04:03:05;14.40;84.20
69328;DHT22;56472;52.114;5.492;2022-12-31T04:05:32;14.40;84.30
69328;DHT22;56472;52.114;5.492;2022-12-31T04:07:59;14.40;84.20
69328;DHT22;56472;52.114;5.492;2022-12-31T04:10:26;14.40;84.20
69328;DHT22;56472;52.114;5.492;2022-12-31T04:12:53;14.40;84.10
69328;DHT22;56472;52.114;5.492;2022-12-31T04:15:20;14.40;84.10
69328;DHT22;56472;52.114;5.492;2022-12-31T04:17:47;14.40;84.00
69328;DHT22;56472;52.114;5.492;2022-12-31T04:20:15;14.40;84.00
69328;DHT22;56472;52.114;5.492;2022-12-31T04:22:42;14.40;84.70
69328;DHT22;56472;52.114;5.492;2022-12-31T04:25:10;14.30;83.90
69328;DHT22;56472;52.114;5.492;2022-12-31T04:27:41;14.40;83.90
69328;DHT22;56472;52.114;5.492;2022-12-31T04:30:11;14.40;83.70
69328;DHT22;56472;52.114;5.492;2022-12-31T04:32:38;14.40;83.70
69328;DHT22;56472;52.114;5.492;2022-12-31T04:35:06;14.40;83.70
69328;DHT22;56472;52.114;5.492;2022-12-31T04:37:33;14.30;83.60
69328;DHT22;56472;52.114;5.492;2022-12-31T04:40:00;14.40;83.70
69328;DHT22;56472;52.114;5.492;2022-12-31T04:42:32;14.30;83.70
69328;DHT22;56472;52.114;5.492;2022-12-31T04:44:59;14.30;83.80
69328;DHT22;56472;52.114;5.492;2022-12-31T04:47:26;14.40;83.90
69328;DHT22;56472;52.114;5.492;2022-12-31T04:49:53;14.40;83.90
69328;DHT22;56472;52.114;5.492;2022-12-31T04:52:20;14.40;83.80
69328;DHT22;56472;52.114;5.492;2022-12-31T04:54:47;14.40;83.80
69328;DHT22;56472;52.114;5.492;2022-12-31T04:57:14;14.40;83.80
69328;DHT22;56472;52.114;5.492;2022-12-31T04:59:41;14.40;83.80
69328;DHT22;56472;52.114;5.492;2022-12-31T05:02:08;14.40;83.80
69328;DHT22;56472;52.114;5.492;2022-12-31T05:04:35;14.40;83.80
69328;DHT22;56472;52.114;5.492;2022-12-31T05:07:02;14.40;83.80
69328;DHT22;56472;52.114;5.492;2022-12-31T05:09:29;14.40;83.90
69328;DHT22;56472;52.114;5.492;2022-12-31T05:11:57;14.40;83.80
69328;DHT22;56472;52.114;5.492;2022-12-31T05:14:24;14.50;83.70
69328;DHT22;56472;52.114;5.492;2022-12-31T05:16:52;14.50;83.70
69328;DHT22;56472;52.114;5.492;2022-12-31T05:19:19;14.50;83.70
69328;DHT22;56472;52.114;5.492;2022-12-31T05:21:46;14.50;83.70
69328;DHT22;56472;52.114;5.492;2022-12-31T05:24:33;14.50;83.70
69328;DHT22;56472;52.114;5.492;2022-12-31T05:27:00;14.50;83.70
69328;DHT22;56472;52.114;5.492;2022-12-31T05:29:27;14.40;83.90
69328;DHT22;56472;52.114;5.492;2022-12-31T05:31:54;14.40;84.00
69328;DHT22;56472;52.114;5.492;2022-12-31T05:34:21;14.50;84.20
69328;DHT22;56472;52.114;5.492;2022-12-31T05:36:48;14.40;84.30
69328;DHT22;56472;52.114;5.492;2022-12-31T05:39:14;14.40;84.50
69328;DHT22;56472;52.114;5.492;2022-12-31T05:41:41;14.50;84.60
69328;DHT22;56472;52.114;5.492;2022-12-31T05:44:09;14.40;84.70
69328;DHT22;56472;52.114;5.492;2022-12-31T05:46:36;14.50;85.00
69328;DHT22;56472;52.114;5.492;2022-12-31T05:49:03;14.50;85.00
69328;DHT22;56472;52.114;5.492;2022-12-31T05:51:30;14.50;85.10
69328;DHT22;56472;52.114;5.492;2022-12-31T05:53:57;14.50;85.20
69328;DHT22;56472;52.114;5.492;2022-12-31T05:56:24;14.50;85.40
69328;DHT22;56472;52.114;5.492;2022-12-31T05:58:51;14.50;85.40
69328;DHT22;56472;52.114;5.492;2022-12-31T06:01:18;14.50;85.50
69328;DHT22;56472;52.114;5.492;2022-12-31T06:03:45;14.50;85.50
69328;DHT22;56472;52.114;5.492;2022-12-31T06:06:12;14.60;85.60
69328;DHT22;56472;52.114;5.492;2022-12-31T06:08:39;14.60;85.70
69328;DHT22;56472;52.114;5.492;2022-12-31T06:11:06;14.60;85.80
69328;DHT22;56472;52.114;5.492;2022-12-31T06:13:33;14.60;85.80
69328;DHT22;56472;52.114;5.492;2022-12-31T06:16:07;14.60;85.80
69328;DHT22;56472;52.114;5.492;2022-12-31T06:18:35;14.60;85.80
69328;DHT22;56472;52.114;5.492;2022-12-31T06:21:02;14.60;85.90
69328;DHT22;56472;52.114;5.492;2022-12-31T06:23:30;14.70;86.80
69328;DHT22;56472;52.114;5.492;2022-12-31T06:26:03;14.70;85.90
69328;DHT22;56472;52.114;5.492;2022-12-31T06:28:31;14.70;85.80
69328;DHT22;56472;52.114;5.492;2022-12-31T06:30:59;14.70;85.80
69328;DHT22;56472;52.114;5.492;2022-12-31T06:33:27;14.70;85.90
69328;DHT22;56472;52.114;5.492;2022-12-31T06:36:00;14.70;86.00
69328;DHT22;56472;52.114;5.492;2022-12-31T06:38:29;14.70;86.00
69328;DHT22;56472;52.114;5.492;2022-12-31T06:40:56;14.70;86.10
69328;DHT22;56472;52.114;5.492;2022-12-31T06:43:23;14.80;86.30
69328;DHT22;56472;52.114;5.492;2022-12-31T06:45:50;14.80;86.40
69328;DHT22;56472;52.114;5.492;2022-12-31T06:48:17;14.80;86.50
69328;DHT22;56472;52.114;5.492;2022-12-31T06:50:44;14.80;86.60
69328;DHT22;56472;52.114;5.492;2022-12-31T06:53:11;14.90;86.70
69328;DHT22;56472;52.114;5.492;2022-12-31T06:55:38;14.90;86.90
69328;DHT22;56472;52.114;5.492;2022-12-31T06:58:08;14.90;86.90
69328;DHT22;56472;52.114;5.492;2022-12-31T07:00:39;14.90;86.90
69328;DHT22;56472;52.114;5.492;2022-12-31T07:03:36;14.90;87.00
69328;DHT22;56472;52.114;5.492;2022-12-31T07:06:15;14.90;87.20
69328;DHT22;56472;52.114;5.492;2022-12-31T07:09:00;15.00;87.30
69328;DHT22;56472;52.114;5.492;2022-12-31T07:11:37;15.00;87.40
69328;DHT22;56472;52.114;5.492;2022-12-31T07:20:02;15.00;88.30
69328;DHT22;56472;52.114;5.492;2022-12-31T07:22:30;15.00;88.50
69328;DHT22;56472;52.114;5.492;2022-12-31T07:24:57;15.10;88.90
69328;DHT22;56472;52.114;5.492;2022-12-31T07:30:14;15.10;89.00
69328;DHT22;56472;52.114;5.492;2022-12-31T07:41:32;15.10;90.00
69328;DHT22;56472;52.114;5.492;2022-12-31T07:47:19;15.20;90.00
69328;DHT22;56472;52.114;5.492;2022-12-31T07:49:47;15.20;90.00
69328;DHT22;56472;52.114;5.492;2022-12-31T07:52:14;15.30;90.00
69328;DHT22;56472;52.114;5.492;2022-12-31T07:54:41;15.30;90.00
69328;DHT22;56472;52.114;5.492;2022-12-31T07:57:12;15.30;90.10
69328;DHT22;56472;52.114;5.492;2022-12-31T08:00:10;15.40;90.10
69328;DHT22;56472;52.114;5.492;2022-12-31T08:13:26;15.50;90.00
69328;DHT22;56472;52.114;5.492;2022-12-31T08:15:53;15.50;90.00
69328;DHT22;56472;52.114;5.492;2022-12-31T08:18:20;15.60;89.90
69328;DHT22;56472;52.114;5.492;2022-12-31T08:23:30;15.60;89.60
69328;DHT22;56472;52.114;5.492;2022-12-31T08:29:06;15.70;89.30
69328;DHT22;56472;52.114;5.492;2022-12-31T08:37:03;15.60;89.10
69328;DHT22;56472;52.114;5.492;2022-12-31T08:39:57;15.70;89.10
69328;DHT22;56472;52.114;5.492;2022-12-31T08:48:09;15.70;88.70
69328;DHT22;56472;52.114;5.492;2022-12-31T08:50:37;15.70;88.50
69328;DHT22;56472;52.114;5.492;2022-12-31T08:53:04;15.70;88.30
69328;DHT22;56472;52.114;5.492;2022-12-31T08:55:31;15.70;88.20
69328;DHT22;56472;52.114;5.492;2022-12-31T09:00:45;15.60;88.20
69328;DHT22;56472;52.114;5.492;2022-12-31T09:03:22;15.60;89.10
69328;DHT22;56472;52.114;5.492;2022-12-31T09:06:05;15.60;88.30
69328;DHT22;56472;52.114;5.492;2022-12-31T09:14:49;15.40;88.80
69328;DHT22;56472;52.114;5.492;2022-12-31T09:20:05;15.40;89.10
69328;DHT22;56472;52.114;5.492;2022-12-31T09:22:32;15.40;89.20
69328;DHT22;56472;52.114;5.492;2022-12-31T09:24:59;15.50;89.30
69328;DHT22;56472;52.114;5.492;2022-12-31T09:27:39;15.50;89.30
69328;DHT22;56472;52.114;5.492;2022-12-31T09:30:12;15.50;89.50
69328;DHT22;56472;52.114;5.492;2022-12-31T09:32:46;15.50;89.30
69328;DHT22;56472;52.114;5.492;2022-12-31T09:35:34;15.50;89.30
69328;DHT22;56472;52.114;5.492;2022-12-31T09:38:43;15.60;89.20
69328;DHT22;56472;52.114;5.492;2022-12-31T09:41:15;15.60;89.20
69328;DHT22;56472;52.114;5.492;2022-12-31T09:58:50;15.90;89.00
69328;DHT22;56472;52.114;5.492;2022-12-31T10:09:41;16.10;88.40
69328;DHT22;56472;52.114;5.492;2022-12-31T10:12:41;16.20;88.30
69328;DHT22;56472;52.114;5.492;2022-12-31T10:21:25;16.30;88.00
69328;DHT22;56472;52.114;5.492;2022-12-31T10:24:22;16.40;88.00
69328;DHT22;56472;52.114;5.492;2022-12-31T10:27:26;16.50;87.70
69328;DHT22;56472;52.114;5.492;2022-12-31T10:30:02;16.50;87.80
69328;DHT22;56472;52.114;5.492;2022-12-31T10:36:01;16.70;87.40
69328;DHT22;56472;52.114;5.492;2022-12-31T11:07:14;17.00;86.10
69328;DHT22;56472;52.114;5.492;2022-12-31T11:10:25;17.00;86.30
69328;DHT22;56472;52.114;5.492;2022-12-31T11:20:57;17.00;86.40
69328;DHT22;56472;52.114;5.492;2022-12-31T11:29:23;17.00;86.70
69328;DHT22;56472;52.114;5.492;2022-12-31T11:48:25;16.90;86.80
69328;DHT22;56472;52.114;5.492;2022-12-31T11:59:57;16.90;86.40
69328;DHT22;56472;52.114;5.492;2022-12-31T12:02:50;16.90;85.80
69328;DHT22;56472;52.114;5.492;2022-12-31T12:05:19;16.90;86.10
69328;DHT22;56472;52.114;5.492;2022-12-31T12:07:48;17.00;86.00
69328;DHT22;56472;52.114;5.492;2022-12-31T12:12:59;17.10;85.90
69328;DHT22;56472;52.114;5.492;2022-12-31T12:15:30;17.20;85.70
69328;DHT22;56472;52.114;5.492;2022-12-31T12:17:59;17.20;85.20
69328;DHT22;56472;52.114;5.492;2022-12-31T12:20:32;17.30;85.30
69328;DHT22;56472;52.114;5.492;2022-12-31T12:23:01;17.30;84.80
69328;DHT22;56472;52.114;5.492;2022-12-31T12:25:40;17.30;84.60
69328;DHT22;56472;52.114;5.492;2022-12-31T12:28:27;17.30;84.40
69328;DHT22;56472;52.114;5.492;2022-12-31T12:31:03;17.30;84.20
69328;DHT22;56472;52.114;5.492;2022-12-31T12:33:42;17.30;84.20
69328;DHT22;56472;52.114;5.492;2022-12-31T12:36:12;17.30;84.00
69328;DHT22;56472;52.114;5.492;2022-12-31T12:38:40;17.30;83.70
69328;DHT22;56472;52.114;5.492;2022-12-31T12:41:26;17.30;83.70
69328;DHT22;56472;52.114;5.492;2022-12-31T12:44:12;17.30;83.60
69328;DHT22;56472;52.114;5.492;2022-12-31T12:46:47;17.30;83.60
69328;DHT22;56472;52.114;5.492;2022-12-31T12:49:23;17.30;83.60
69328;DHT22;56472;52.114;5.492;2022-12-31T12:57:37;17.30;83.30
69328;DHT22;56472;52.114;5.492;2022-12-31T13:00:08;17.30;83.10
69328;DHT22;56472;52.114;5.492;2022-12-31T13:21:55;17.30;83.10
69328;DHT22;56472;52.114;5.492;2022-12-31T13:29:53;17.30;83.00
69328;DHT22;56472;52.114;5.492;2022-12-31T13:32:26;17.30;83.00
69328;DHT22;56472;52.114;5.492;2022-12-31T13:35:11;17.30;83.10
69328;DHT22;56472;52.114;5.492;2022-12-31T13:37:43;17.30;83.10
69328;DHT22;56472;52.114;5.492;2022-12-31T13:40:20;17.30;83.00
69328;DHT22;56472;52.114;5.492;2022-12-31T13:42:58;17.30;83.10
69328;DHT22;56472;52.114;5.492;2022-12-31T13:45:31;17.30;83.10
69328;DHT22;56472;52.114;5.492;2022-12-31T13:48:05;17.30;83.10
69328;DHT22;56472;52.114;5.492;2022-12-31T13:50:47;17.20;83.20
69328;DHT22;56472;52.114;5.492;2022-12-31T13:53:33;17.20;83.20
69328;DHT22;56472;52.114;5.492;2022-12-31T13:56:08;17.20;83.30
69328;DHT22;56472;52.114;5.492;2022-12-31T13:58:50;17.20;83.40
69328;DHT22;56472;52.114;5.492;2022-12-31T14:01:28;17.20;83.40
69328;DHT22;56472;52.114;5.492;2022-12-31T14:04:17;17.20;83.50
69328;DHT22;56472;52.114;5.492;2022-12-31T14:07:04;17.20;83.40
69328;DHT22;56472;52.114;5.492;2022-12-31T14:09:33;17.10;83.60
69328;DHT22;56472;52.114;5.492;2022-12-31T14:25:46;17.10;82.60
69328;DHT22;56472;52.114;5.492;2022-12-31T14:28:23;17.10;82.50
69328;DHT22;56472;52.114;5.492;2022-12-31T14:31:06;17.10;82.40
69328;DHT22;56472;52.114;5.492;2022-12-31T14:47:52;16.90;81.30
69328;DHT22;56472;52.114;5.492;2022-12-31T14:50:24;16.80;81.00
69328;DHT22;56472;52.114;5.492;2022-12-31T14:55:31;16.90;80.80
69328;DHT22;56472;52.114;5.492;2022-12-31T14:58:02;16.90;80.60
69328;DHT22;56472;52.114;5.492;2022-12-31T15:03:25;16.90;80.30
69328;DHT22;56472;52.114;5.492;2022-12-31T15:09:30;17.00;80.30
69328;DHT22;56472;52.114;5.492;2022-12-31T15:14:52;17.00;79.60
69328;DHT22;56472;52.114;5.492;2022-12-31T15:22:50;17.10;79.20
69328;DHT22;56472;52.114;5.492;2022-12-31T15:27:56;17.10;78.80
69328;DHT22;56472;52.114;5.492;2022-12-31T15:30:35;17.20;78.60
69328;DHT22;56472;52.114;5.492;2022-12-31T15:33:15;17.20;78.40
69328;DHT22;56472;52.114;5.492;2022-12-31T15:35:51;17.20;77.50
69328;DHT22;56472;52.114;5.492;2022-12-31T15:38:33;17.20;77.60
69328;DHT22;56472;52.114;5.492;2022-12-31T15:41:12;17.30;77.50
69328;DHT22;56472;52.114;5.492;2022-12-31T15:43:53;17.30;77.50
69328;DHT22;56472;52.114;5.492;2022-12-31T15:46:22;17.30;76.40
69328;DHT22;56472;52.114;5.492;2022-12-31T15:48:56;17.30;76.70
69328;DHT22;56472;52.114;5.492;2022-12-31T15:51:51;17.30;76.50
69328;DHT22;56472;52.114;5.492;2022-12-31T15:54:44;17.30;76.00
69328;DHT22;56472;52.114;5.492;2022-12-31T16:00:01;17.30;75.60
69328;DHT22;56472;52.114;5.492;2022-12-31T16:02:30;17.30;75.30
69328;DHT22;56472;52.114;5.492;2022-12-31T16:04:58;17.30;75.40
69328;DHT22;56472;52.114;5.492;2022-12-31T16:07:27;17.30;74.80
69328;DHT22;56472;52.114;5.492;2022-12-31T16:09:57;17.40;74.50
69328;DHT22;56472;52.114;5.492;2022-12-31T16:12:27;17.40;74.30
69328;DHT22;56472;52.114;5.492;2022-12-31T16:15:01;17.40;74.20
69328;DHT22;56472;52.114;5.492;2022-12-31T16:17:34;17.40;74.00
69328;DHT22;56472;52.114;5.492;2022-12-31T16:20:23;17.50;74.00
69328;DHT22;56472;52.114;5.492;2022-12-31T16:22:53;17.50;73.70
69328;DHT22;56472;52.114;5.492;2022-12-31T16:25:22;17.50;73.50
69328;DHT22;56472;52.114;5.492;2022-12-31T16:28:00;17.50;73.30
69328;DHT22;56472;52.114;5.492;2022-12-31T16:30:32;17.50;73.20
69328;DHT22;56472;52.114;5.492;2022-12-31T16:33:03;17.50;72.60
69328;DHT22;56472;52.114;5.492;2022-12-31T16:35:33;17.50;72.40
69328;DHT22;56472;52.114;5.492;2022-12-31T16:40:33;17.50;72.00
69328;DHT22;56472;52.114;5.492;2022-12-31T16:43:01;17.50;72.00
69328;DHT22;56472;52.114;5.492;2022-12-31T16:45:35;17.60;72.20
69328;DHT22;56472;52.114;5.492;2022-12-31T16:48:08;17.60;71.80
69328;DHT22;56472;52.114;5.492;2022-12-31T16:50:48;17.60;72.00
69328;DHT22;56472;52.114;5.492;2022-12-31T16:53:18;17.50;71.10
69328;DHT22;56472;52.114;5.492;2022-12-31T16:56:25;17.60;71.40
69328;DHT22;56472;52.114;5.492;2022-12-31T16:59:00;17.60;71.20
69328;DHT22;56472;52.114;5.492;2022-12-31T17:01:32;17.60;70.90
69328;DHT22;56472;52.114;5.492;2022-12-31T17:04:05;17.60;70.90
69328;DHT22;56472;52.114;5.492;2022-12-31T17:06:34;17.60;70.70
69328;DHT22;56472;52.114;5.492;2022-12-31T17:09:12;17.60;70.50
69328;DHT22;56472;52.114;5.492;2022-12-31T17:11:52;17.60;70.40
69328;DHT22;56472;52.114;5.492;2022-12-31T17:14:22;17.60;70.40
69328;DHT22;56472;52.114;5.492;2022-12-31T17:17:07;17.60;70.40
69328;DHT22;56472;52.114;5.492;2022-12-31T17:19:44;17.60;70.40
69328;DHT22;56472;52.114;5.492;2022-12-31T17:22:29;17.60;70.30
69328;DHT22;56472;52.114;5.492;2022-12-31T17:25:12;17.60;69.90
69328;DHT22;56472;52.114;5.492;2022-12-31T17:27:55;17.60;69.80
69328;DHT22;56472;52.114;5.492;2022-12-31T17:35:34;17.60;69.40
69328;DHT22;56472;52.114;5.492;2022-12-31T17:40:52;17.60;69.00
69328;DHT22;56472;52.114;5.492;2022-12-31T17:43:21;17.50;68.90
69328;DHT22;56472;52.114;5.492;2022-12-31T17:45:50;17.50;68.90
69328;DHT22;56472;52.114;5.492;2022-12-31T17:48:19;17.60;69.10
69328;DHT22;56472;52.114;5.492;2022-12-31T17:50:50;17.60;68.80
69328;DHT22;56472;52.114;5.492;2022-12-31T17:53:18;17.50;68.80
69328;DHT22;56472;52.114;5.492;2022-12-31T17:55:52;17.50;68.40
69328;DHT22;56472;52.114;5.492;2022-12-31T18:01:25;17.60;68.30
69328;DHT22;56472;52.114;5.492;2022-12-31T18:03:52;17.60;68.10
69328;DHT22;56472;52.114;5.492;2022-12-31T18:06:19;17.60;67.60
69328;DHT22;56472;52.114;5.492;2022-12-31T18:08:46;17.60;67.90
69328;DHT22;56472;52.114;5.492;2022-12-31T18:11:21;17.60;67.70
69328;DHT22;56472;52.114;5.492;2022-12-31T18:13:49;17.60;67.50
69328;DHT22;56472;52.114;5.492;2022-12-31T18:16:15;17.60;67.30
69328;DHT22;56472;52.114;5.492;2022-12-31T18:18:42;17.60;67.20
69328;DHT22;56472;52.114;5.492;2022-12-31T18:21:37;17.60;67.10
69328;DHT22;56472;52.114;5.492;2022-12-31T18:24:04;17.60;67.10
69328;DHT22;56472;52.114;5.492;2022-12-31T18:26:31;17.60;66.90
69328;DHT22;56472;52.114;5.492;2022-12-31T18:29:17;17.60;66.60
69328;DHT22;56472;52.114;5.492;2022-12-31T18:31:46;17.60;66.60
69328;DHT22;56472;52.114;5.492;2022-12-31T18:34:14;17.60;66.30
69328;DHT22;56472;52.114;5.492;2022-12-31T18:36:42;17.60;65.90
69328;DHT22;56472;52.114;5.492;2022-12-31T18:39:09;17.60;65.60
69328;DHT22;56472;52.114;5.492;2022-12-31T18:41:42;17.60;65.60
69328;DHT22;56472;52.114;5.492;2022-12-31T18:44:16;17.60;65.70
69328;DHT22;56472;52.114;5.492;2022-12-31T18:46:43;17.60;64.90
69328;DHT22;56472;52.114;5.492;2022-12-31T18:49:10;17.60;65.20
69328;DHT22;56472;52.114;5.492;2022-12-31T18:51:36;17.60;65.00
69328;DHT22;56472;52.114;5.492;2022-12-31T18:54:03;17.70;64.80
69328;DHT22;56472;52.114;5.492;2022-12-31T18:56:32;17.70;64.70
69328;DHT22;56472;52.114;5.492;2022-12-31T18:58:58;17.70;64.30
69328;DHT22;56472;52.114;5.492;2022-12-31T19:01:35;17.70;64.10
69328;DHT22;56472;52.114;5.492;2022-12-31T19:04:11;17.70;64.10
69328;DHT22;56472;52.114;5.492;2022-12-31T19:06:39;17.70;63.60
69328;DHT22;56472;52.114;5.492;2022-12-31T19:09:06;17.70;63.50
69328;DHT22;56472;52.114;5.492;2022-12-31T19:11:52;17.70;63.60
69328;DHT22;56472;52.114;5.492;2022-12-31T19:14:23;17.70;63.20
69328;DHT22;56472;52.114;5.492;2022-12-31T19:16:51;17.70;62.90
69328;DHT22;56472;52.114;5.492;2022-12-31T19:19:20;17.70;62.60
69328;DHT22;56472;52.114;5.492;2022-12-31T19:21:47;17.70;62.50
69328;DHT22;56472;52.114;5.492;2022-12-31T19:24:19;17.70;62.00
69328;DHT22;56472;52.114;5.492;2022-12-31T19:26:47;17.70;61.90
69328;DHT22;56472;52.114;5.492;2022-12-31T19:29:27;17.70;62.00
69328;DHT22;56472;52.114;5.492;2022-12-31T19:31:54;17.70;61.70
69328;DHT22;56472;52.114;5.492;2022-12-31T19:34:21;17.70;61.20
69328;DHT22;56472;52.114;5.492;2022-12-31T19:36:48;17.70;61.40
69328;DHT22;56472;52.114;5.492;2022-12-31T19:39:17;17.70;61.00
69328;DHT22;56472;52.114;5.492;2022-12-31T19:41:45;17.70;60.80
69328;DHT22;56472;52.114;5.492;2022-12-31T19:44:24;17.70;61.00
69328;DHT22;56472;52.114;5.492;2022-12-31T19:46:51;17.70;60.80
69328;DHT22;56472;52.114;5.492;2022-12-31T19:49:18;17.70;60.50
69328;DHT22;56472;52.114;5.492;2022-12-31T19:51:45;17.70;60.50
69328;DHT22;56472;52.114;5.492;2022-12-31T19:54:12;17.70;60.80
69328;DHT22;56472;52.114;5.492;2022-12-31T19:56:39;17.70;60.60
69328;DHT22;56472;52.114;5.492;2022-12-31T19:59:08;17.70;60.60
69328;DHT22;56472;52.114;5.492;2022-12-31T20:01:36;17.70;60.60
69328;DHT22;56472;52.114;5.492;2022-12-31T20:04:03;17.60;60.90
69328;DHT22;56472;52.114;5.492;2022-12-31T20:06:30;17.60;60.90
69328;DHT22;56472;52.114;5.492;2022-12-31T20:08:57;17.60;61.10
69328;DHT22;56472;52.114;5.492;2022-12-31T20:11:24;17.60;61.00
69328;DHT22;56472;52.114;5.492;2022-12-31T20:13:52;17.60;61.00
69328;DHT22;56472;52.114;5.492;2022-12-31T20:16:21;17.60;60.80
69328;DHT22;56472;52.114;5.492;2022-12-31T20:18:48;17.50;60.70
69328;DHT22;56472;52.114;5.492;2022-12-31T20:21:22;17.50;61.20
69328;DHT22;56472;52.114;5.492;2022-12-31T20:23:50;17.50;61.20
69328;DHT22;56472;52.114;5.492;2022-12-31T20:26:17;17.50;60.90
69328;DHT22;56472;52.114;5.492;2022-12-31T20:28:44;17.50;61.00
69328;DHT22;56472;52.114;5.492;2022-12-31T20:31:18;17.50;61.30
69328;DHT22;56472;52.114;5.492;2022-12-31T20:33:45;17.50;61.20
69328;DHT22;56472;52.114;5.492;2022-12-31T20:36:14;17.50;61.30
69328;DHT22;56472;52.114;5.492;2022-12-31T20:38:41;17.50;61.20
69328;DHT22;56472;52.114;5.492;2022-12-31T20:41:10;17.50;61.40
69328;DHT22;56472;52.114;5.492;2022-12-31T20:43:37;17.50;60.90
69328;DHT22;56472;52.114;5.492;2022-12-31T20:46:13;17.50;61.00
69328;DHT22;56472;52.114;5.492;2022-12-31T20:48:43;17.50;61.00
69328;DHT22;56472;52.114;5.492;2022-12-31T20:51:11;17.50;61.10